CYYY

Details ICAO CYYY (YYY)
Name MONT JOLI
Region Canada
Timezone America/Montreal (UTC-4.0)
Plans Departing 21
Arriving 16
Stats Elevation 172 ft / 52 m (AMSL)
Location 48.607251° -68.209228°
Runways 2
Magnetic Variation 17.582° W
Sunrise 2018-05-27 08:40:17 UTC / 2018-05-27 04:40:17 Local
Sunset 2018-05-28 00:22:38 UTC / 2018-05-27 20:22:38 Local
Advertisement - Login to hide

Runways

ID Width Length Bearing (true) Bearing (mag) Surface Threshold Offset Overrun Length
06 150 ft / 46 m 5,986 ft / 1,824 m 38.83° 56.41° Asphalt 500 ft / 152 m 0 ft / 0 m
15 150 ft / 46 m 3,929 ft / 1,197 m 132.96° 150.54° Asphalt 0 ft / 0 m 0 ft / 0 m
24 150 ft / 46 m 5,986 ft / 1,824 m 218.84° 236.42° Asphalt 0 ft / 0 m 0 ft / 0 m
33 150 ft / 46 m 3,929 ft / 1,197 m 312.97° 330.55° Asphalt 230 ft / 70 m 0 ft / 0 m

Approach Navaids

Runway Type Ident Frequency Range Bearing (true) Bearing (mag) Slope Elevation
06 Localiser IYY 109.70 MHz 18 nm / 33 km 38.40° 55.98° - 172 ft / 52 m (AMSL)

Map

Weather


0- 5 10 15 20 25 30 35+ Temperature / ° C

Clouds and Precipitation
Forecast for 2018-05-27 18:00 UTC. Updated 27 minutes ago

Ground ~20,000 ft ~40,000 ft Winds

METAR

CYYY 271700Z 05011KT 30SM FEW260 14/01 A3020 RMK CI1 CI TR SLP231

TAF

TAF CYYY 271338Z 2714/2802 VRB03KT P6SM FEW240 BECMG 2714/2716 03012KT FM280000 14006KT P6SM SCT200 RMK NXT FCST BY 272000Z
Warning: Do not use this data for real-world aviation or navigation. No guarantee of current accuracy is given.